sensor_id;sensor_type;location;lat;lon;timestamp;temperature;humidity
9971;DHT22;5026;51.494;11.974;2023-01-23T00:02:08;1.10;99.90
9971;DHT22;5026;51.494;11.974;2023-01-23T00:04:36;1.10;99.90
9971;DHT22;5026;51.494;11.974;2023-01-23T00:07:02;1.10;99.90
9971;DHT22;5026;51.494;11.974;2023-01-23T00:09:31;1.10;99.90
9971;DHT22;5026;51.494;11.974;2023-01-23T00:11:58;1.10;99.90
9971;DHT22;5026;51.494;11.974;2023-01-23T00:14:25;1.10;99.90
9971;DHT22;5026;51.494;11.974;2023-01-23T00:16:51;1.10;99.90
9971;DHT22;5026;51.494;11.974;2023-01-23T00:19:18;1.10;99.90
9971;DHT22;5026;51.494;11.974;2023-01-23T00:21:45;1.10;99.90
9971;DHT22;5026;51.494;11.974;2023-01-23T00:24:12;1.20;99.90
9971;DHT22;5026;51.494;11.974;2023-01-23T00:26:41;1.20;99.90
9971;DHT22;5026;51.494;11.974;2023-01-23T00:29:08;1.20;99.90
9971;DHT22;5026;51.494;11.974;2023-01-23T00:31:37;1.20;99.90
9971;DHT22;5026;51.494;11.974;2023-01-23T00:34:06;1.30;99.90
9971;DHT22;5026;51.494;11.974;2023-01-23T00:36:36;1.30;99.90
9971;DHT22;5026;51.494;11.974;2023-01-23T00:39:07;1.30;99.90
9971;DHT22;5026;51.494;11.974;2023-01-23T00:41:34;1.30;99.90
9971;DHT22;5026;51.494;11.974;2023-01-23T00:44:02;1.20;99.90
9971;DHT22;5026;51.494;11.974;2023-01-23T00:46:29;1.20;99.90
9971;DHT22;5026;51.494;11.974;2023-01-23T00:48:56;1.30;99.90
9971;DHT22;5026;51.494;11.974;2023-01-23T00:51:23;1.20;99.90
9971;DHT22;5026;51.494;11.974;2023-01-23T00:53:50;1.10;99.90
9971;DHT22;5026;51.494;11.974;2023-01-23T00:56:17;1.10;99.90
9971;DHT22;5026;51.494;11.974;2023-01-23T00:58:44;1.10;99.90
9971;DHT22;5026;51.494;11.974;2023-01-23T01:01:13;1.10;99.90
9971;DHT22;5026;51.494;11.974;2023-01-23T01:03:41;1.80;99.90
9971;DHT22;5026;51.494;11.974;2023-01-23T01:06:08;1.10;99.90
9971;DHT22;5026;51.494;11.974;2023-01-23T01:08:35;1.10;99.90
9971;DHT22;5026;51.494;11.974;2023-01-23T01:11:02;1.10;99.90
9971;DHT22;5026;51.494;11.974;2023-01-23T01:13:30;1.10;99.90
9971;DHT22;5026;51.494;11.974;2023-01-23T01:15:57;1.10;99.90
9971;DHT22;5026;51.494;11.974;2023-01-23T01:18:28;1.10;99.90
9971;DHT22;5026;51.494;11.974;2023-01-23T01:20:56;1.10;99.90
9971;DHT22;5026;51.494;11.974;2023-01-23T01:23:23;1.10;99.90
9971;DHT22;5026;51.494;11.974;2023-01-23T01:25:50;1.10;99.90
9971;DHT22;5026;51.494;11.974;2023-01-23T01:28:17;1.00;99.90
9971;DHT22;5026;51.494;11.974;2023-01-23T01:33:11;1.10;99.90
9971;DHT22;5026;51.494;11.974;2023-01-23T01:35:40;1.00;99.90
9971;DHT22;5026;51.494;11.974;2023-01-23T01:38:07;1.10;99.90
9971;DHT22;5026;51.494;11.974;2023-01-23T01:40:35;1.80;99.90
9971;DHT22;5026;51.494;11.974;2023-01-23T01:43:04;1.10;99.90
9971;DHT22;5026;51.494;11.974;2023-01-23T01:45:58;1.10;99.90
9971;DHT22;5026;51.494;11.974;2023-01-23T01:48:30;1.10;99.90
9971;DHT22;5026;51.494;11.974;2023-01-23T01:50:59;1.60;99.90
9971;DHT22;5026;51.494;11.974;2023-01-23T01:53:29;1.10;99.90
9971;DHT22;5026;51.494;11.974;2023-01-23T01:55:58;1.10;99.90
9971;DHT22;5026;51.494;11.974;2023-01-23T01:58:26;1.10;99.90
9971;DHT22;5026;51.494;11.974;2023-01-23T02:00:54;1.10;99.90
9971;DHT22;5026;51.494;11.974;2023-01-23T02:03:22;1.10;99.90
9971;DHT22;5026;51.494;11.974;2023-01-23T02:05:49;1.10;99.90
9971;DHT22;5026;51.494;11.974;2023-01-23T02:08:22;1.10;99.90
9971;DHT22;5026;51.494;11.974;2023-01-23T02:10:50;1.10;99.90
9971;DHT22;5026;51.494;11.974;2023-01-23T02:13:21;1.10;99.90
9971;DHT22;5026;51.494;11.974;2023-01-23T02:15:48;1.10;99.90
9971;DHT22;5026;51.494;11.974;2023-01-23T02:18:16;1.10;99.90
9971;DHT22;5026;51.494;11.974;2023-01-23T02:20:43;0.30;99.90
9971;DHT22;5026;51.494;11.974;2023-01-23T02:23:16;1.10;99.90
9971;DHT22;5026;51.494;11.974;2023-01-23T02:25:53;1.10;99.90
9971;DHT22;5026;51.494;11.974;2023-01-23T02:28:20;1.10;99.90
9971;DHT22;5026;51.494;11.974;2023-01-23T02:30:47;1.10;99.90
9971;DHT22;5026;51.494;11.974;2023-01-23T02:33:49;1.10;99.90
9971;DHT22;5026;51.494;11.974;2023-01-23T02:36:19;1.10;99.90
9971;DHT22;5026;51.494;11.974;2023-01-23T02:38:52;1.20;99.90
9971;DHT22;5026;51.494;11.974;2023-01-23T02:41:26;1.20;99.90
9971;DHT22;5026;51.494;11.974;2023-01-23T02:43:56;1.20;99.90
9971;DHT22;5026;51.494;11.974;2023-01-23T02:46:24;1.30;99.90
9971;DHT22;5026;51.494;11.974;2023-01-23T02:48:51;1.30;99.90
9971;DHT22;5026;51.494;11.974;2023-01-23T02:51:18;1.20;99.90
9971;DHT22;5026;51.494;11.974;2023-01-23T02:53:46;1.20;99.90
9971;DHT22;5026;51.494;11.974;2023-01-23T02:56:13;1.20;99.90
9971;DHT22;5026;51.494;11.974;2023-01-23T02:58:42;2.10;99.90
9971;DHT22;5026;51.494;11.974;2023-01-23T03:01:27;1.20;99.90
9971;DHT22;5026;51.494;11.974;2023-01-23T03:03:54;1.20;99.90
9971;DHT22;5026;51.494;11.974;2023-01-23T03:06:29;2.00;99.90
9971;DHT22;5026;51.494;11.974;2023-01-23T03:09:02;1.30;99.90
9971;DHT22;5026;51.494;11.974;2023-01-23T03:11:30;1.90;99.90
9971;DHT22;5026;51.494;11.974;2023-01-23T03:13:59;1.20;99.90
9971;DHT22;5026;51.494;11.974;2023-01-23T03:16:26;1.30;99.90
9971;DHT22;5026;51.494;11.974;2023-01-23T03:18:54;2.30;99.90
9971;DHT22;5026;51.494;11.974;2023-01-23T03:21:26;1.30;99.90
9971;DHT22;5026;51.494;11.974;2023-01-23T03:23:53;1.20;99.90
9971;DHT22;5026;51.494;11.974;2023-01-23T03:26:20;1.30;99.90
9971;DHT22;5026;51.494;11.974;2023-01-23T03:28:47;1.30;99.90
9971;DHT22;5026;51.494;11.974;2023-01-23T03:31:32;1.50;99.90
9971;DHT22;5026;51.494;11.974;2023-01-23T03:33:59;1.20;99.90
9971;DHT22;5026;51.494;11.974;2023-01-23T03:36:27;1.20;99.90
9971;DHT22;5026;51.494;11.974;2023-01-23T03:38:53;1.20;99.90
9971;DHT22;5026;51.494;11.974;2023-01-23T03:41:38;1.20;99.90
9971;DHT22;5026;51.494;11.974;2023-01-23T03:44:07;1.20;99.90
9971;DHT22;5026;51.494;11.974;2023-01-23T03:46:35;1.20;99.90
9971;DHT22;5026;51.494;11.974;2023-01-23T03:49:02;1.20;99.90
9971;DHT22;5026;51.494;11.974;2023-01-23T03:51:29;1.30;99.90
9971;DHT22;5026;51.494;11.974;2023-01-23T03:53:56;1.30;99.90
9971;DHT22;5026;51.494;11.974;2023-01-23T03:56:23;1.20;99.90
9971;DHT22;5026;51.494;11.974;2023-01-23T03:58:49;1.60;99.90
9971;DHT22;5026;51.494;11.974;2023-01-23T04:01:17;1.20;99.90
9971;DHT22;5026;51.494;11.974;2023-01-23T04:03:45;1.20;99.90
9971;DHT22;5026;51.494;11.974;2023-01-23T04:06:12;1.20;99.90
9971;DHT22;5026;51.494;11.974;2023-01-23T04:08:39;1.30;99.90
9971;DHT22;5026;51.494;11.974;2023-01-23T04:11:07;1.40;99.90
9971;DHT22;5026;51.494;11.974;2023-01-23T04:13:35;1.30;99.90
9971;DHT22;5026;51.494;11.974;2023-01-23T04:16:03;1.30;99.90
9971;DHT22;5026;51.494;11.974;2023-01-23T04:18:31;1.20;99.90
9971;DHT22;5026;51.494;11.974;2023-01-23T04:21:00;1.30;99.90
9971;DHT22;5026;51.494;11.974;2023-01-23T04:23:27;1.40;99.90
9971;DHT22;5026;51.494;11.974;2023-01-23T04:25:54;2.30;99.90
9971;DHT22;5026;51.494;11.974;2023-01-23T04:28:21;1.40;99.90
9971;DHT22;5026;51.494;11.974;2023-01-23T04:30:49;1.40;99.90
9971;DHT22;5026;51.494;11.974;2023-01-23T04:33:16;1.40;99.90
9971;DHT22;5026;51.494;11.974;2023-01-23T04:35:49;1.30;99.90
9971;DHT22;5026;51.494;11.974;2023-01-23T04:38:17;1.40;99.90
9971;DHT22;5026;51.494;11.974;2023-01-23T04:40:45;1.40;99.90
9971;DHT22;5026;51.494;11.974;2023-01-23T04:43:12;1.40;99.90
9971;DHT22;5026;51.494;11.974;2023-01-23T04:45:39;1.40;99.90
9971;DHT22;5026;51.494;11.974;2023-01-23T04:48:06;1.50;99.90
9971;DHT22;5026;51.494;11.974;2023-01-23T04:50:33;1.50;99.90
9971;DHT22;5026;51.494;11.974;2023-01-23T04:53:00;1.60;99.90
9971;DHT22;5026;51.494;11.974;2023-01-23T04:55:29;1.50;99.90
9971;DHT22;5026;51.494;11.974;2023-01-23T04:57:56;1.40;99.90
9971;DHT22;5026;51.494;11.974;2023-01-23T05:00:23;1.50;99.90
9971;DHT22;5026;51.494;11.974;2023-01-23T05:02:50;1.50;99.90
9971;DHT22;5026;51.494;11.974;2023-01-23T05:05:17;1.50;99.90
9971;DHT22;5026;51.494;11.974;2023-01-23T05:07:45;1.50;99.90
9971;DHT22;5026;51.494;11.974;2023-01-23T05:10:13;1.50;99.90
9971;DHT22;5026;51.494;11.974;2023-01-23T05:12:42;1.60;99.90
9971;DHT22;5026;51.494;11.974;2023-01-23T05:15:10;1.50;99.90
9971;DHT22;5026;51.494;11.974;2023-01-23T05:17:37;1.50;99.90
9971;DHT22;5026;51.494;11.974;2023-01-23T05:20:05;1.50;99.90
9971;DHT22;5026;51.494;11.974;2023-01-23T05:22:32;1.50;99.90
9971;DHT22;5026;51.494;11.974;2023-01-23T05:24:59;1.40;99.90
9971;DHT22;5026;51.494;11.974;2023-01-23T05:27:27;1.40;99.90
9971;DHT22;5026;51.494;11.974;2023-01-23T05:29:55;1.40;99.90
9971;DHT22;5026;51.494;11.974;2023-01-23T05:32:22;1.40;99.90
9971;DHT22;5026;51.494;11.974;2023-01-23T05:34:49;1.30;99.90
9971;DHT22;5026;51.494;11.974;2023-01-23T05:37:16;1.30;99.90
9971;DHT22;5026;51.494;11.974;2023-01-23T05:39:43;1.80;99.90
9971;DHT22;5026;51.494;11.974;2023-01-23T05:42:10;1.40;99.90
9971;DHT22;5026;51.494;11.974;2023-01-23T05:44:37;1.80;99.90
9971;DHT22;5026;51.494;11.974;2023-01-23T05:47:05;1.40;99.90
9971;DHT22;5026;51.494;11.974;2023-01-23T05:49:32;1.30;99.90
9971;DHT22;5026;51.494;11.974;2023-01-23T05:51:59;1.60;99.90
9971;DHT22;5026;51.494;11.974;2023-01-23T05:54:26;1.40;99.90
9971;DHT22;5026;51.494;11.974;2023-01-23T05:56:53;1.40;99.90
9971;DHT22;5026;51.494;11.974;2023-01-23T05:59:20;1.40;99.90
9971;DHT22;5026;51.494;11.974;2023-01-23T06:01:47;2.80;99.90
9971;DHT22;5026;51.494;11.974;2023-01-23T06:04:15;2.20;99.90
9971;DHT22;5026;51.494;11.974;2023-01-23T06:06:43;1.40;99.90
9971;DHT22;5026;51.494;11.974;2023-01-23T06:09:10;1.40;99.90
9971;DHT22;5026;51.494;11.974;2023-01-23T06:11:37;1.50;99.90
9971;DHT22;5026;51.494;11.974;2023-01-23T06:14:04;0.10;99.90
9971;DHT22;5026;51.494;11.974;2023-01-23T06:16:31;1.30;99.90
9971;DHT22;5026;51.494;11.974;2023-01-23T06:18:58;1.60;99.90
9971;DHT22;5026;51.494;11.974;2023-01-23T06:21:26;1.60;99.90
9971;DHT22;5026;51.494;11.974;2023-01-23T06:23:53;1.30;99.90
9971;DHT22;5026;51.494;11.974;2023-01-23T06:26:20;1.30;99.90
9971;DHT22;5026;51.494;11.974;2023-01-23T06:28:47;1.60;99.90
9971;DHT22;5026;51.494;11.974;2023-01-23T06:31:14;1.40;99.90
9971;DHT22;5026;51.494;11.974;2023-01-23T06:33:41;1.30;99.90
9971;DHT22;5026;51.494;11.974;2023-01-23T06:36:09;1.30;99.90
9971;DHT22;5026;51.494;11.974;2023-01-23T06:38:37;1.30;99.90
9971;DHT22;5026;51.494;11.974;2023-01-23T06:41:04;1.30;99.90
9971;DHT22;5026;51.494;11.974;2023-01-23T06:43:31;1.30;99.90
9971;DHT22;5026;51.494;11.974;2023-01-23T06:45:58;1.30;99.90
9971;DHT22;5026;51.494;11.974;2023-01-23T06:48:25;1.30;99.90
9971;DHT22;5026;51.494;11.974;2023-01-23T06:50:52;1.30;99.90
9971;DHT22;5026;51.494;11.974;2023-01-23T06:53:19;1.30;99.90
9971;DHT22;5026;51.494;11.974;2023-01-23T06:55:47;1.30;99.90
9971;DHT22;5026;51.494;11.974;2023-01-23T06:58:14;1.40;99.90
9971;DHT22;5026;51.494;11.974;2023-01-23T07:00:41;1.40;99.90
9971;DHT22;5026;51.494;11.974;2023-01-23T07:03:10;1.40;99.90
9971;DHT22;5026;51.494;11.974;2023-01-23T07:05:37;1.40;99.90
9971;DHT22;5026;51.494;11.974;2023-01-23T07:08:05;1.50;99.90
9971;DHT22;5026;51.494;11.974;2023-01-23T07:10:33;1.40;99.90
9971;DHT22;5026;51.494;11.974;2023-01-23T07:13:01;1.30;99.90
9971;DHT22;5026;51.494;11.974;2023-01-23T07:15:28;1.50;99.90
9971;DHT22;5026;51.494;11.974;2023-01-23T07:17:55;1.30;99.90
9971;DHT22;5026;51.494;11.974;2023-01-23T07:20:22;1.30;99.90
9971;DHT22;5026;51.494;11.974;2023-01-23T07:22:51;1.80;99.90
9971;DHT22;5026;51.494;11.974;2023-01-23T07:25:18;2.10;99.90
9971;DHT22;5026;51.494;11.974;2023-01-23T07:27:46;1.50;99.90
9971;DHT22;5026;51.494;11.974;2023-01-23T07:30:15;1.30;99.90
9971;DHT22;5026;51.494;11.974;2023-01-23T07:32:42;1.30;99.90
9971;DHT22;5026;51.494;11.974;2023-01-23T07:35:09;1.30;99.90
9971;DHT22;5026;51.494;11.974;2023-01-23T07:37:36;1.50;99.90
9971;DHT22;5026;51.494;11.974;2023-01-23T07:40:04;1.40;99.90
9971;DHT22;5026;51.494;11.974;2023-01-23T07:42:31;1.40;99.90
9971;DHT22;5026;51.494;11.974;2023-01-23T07:44:58;1.40;99.90
9971;DHT22;5026;51.494;11.974;2023-01-23T07:47:27;1.30;99.90
9971;DHT22;5026;51.494;11.974;2023-01-23T07:49:54;1.30;99.90
9971;DHT22;5026;51.494;11.974;2023-01-23T07:52:21;1.40;99.90
9971;DHT22;5026;51.494;11.974;2023-01-23T07:54:48;1.40;99.90
9971;DHT22;5026;51.494;11.974;2023-01-23T07:57:15;1.40;99.90
9971;DHT22;5026;51.494;11.974;2023-01-23T07:59:42;1.40;99.90
9971;DHT22;5026;51.494;11.974;2023-01-23T08:02:09;1.40;99.90
9971;DHT22;5026;51.494;11.974;2023-01-23T08:04:37;1.60;99.90
9971;DHT22;5026;51.494;11.974;2023-01-23T08:07:04;1.40;99.90
9971;DHT22;5026;51.494;11.974;2023-01-23T08:09:32;1.40;99.90
9971;DHT22;5026;51.494;11.974;2023-01-23T08:11:59;2.70;99.90
9971;DHT22;5026;51.494;11.974;2023-01-23T08:14:26;1.50;99.90
9971;DHT22;5026;51.494;11.974;2023-01-23T08:16:53;1.50;99.90
9971;DHT22;5026;51.494;11.974;2023-01-23T08:19:20;1.50;99.90
9971;DHT22;5026;51.494;11.974;2023-01-23T08:21:51;1.70;99.90
9971;DHT22;5026;51.494;11.974;2023-01-23T08:24:18;1.60;99.90
9971;DHT22;5026;51.494;11.974;2023-01-23T08:26:45;1.60;99.90
9971;DHT22;5026;51.494;11.974;2023-01-23T08:29:12;1.70;99.90
9971;DHT22;5026;51.494;11.974;2023-01-23T08:31:39;2.10;99.90
9971;DHT22;5026;51.494;11.974;2023-01-23T08:34:06;1.70;99.90
9971;DHT22;5026;51.494;11.974;2023-01-23T08:36:33;1.70;99.90
9971;DHT22;5026;51.494;11.974;2023-01-23T08:39:02;1.70;99.90
9971;DHT22;5026;51.494;11.974;2023-01-23T08:41:29;1.60;99.90
9971;DHT22;5026;51.494;11.974;2023-01-23T08:43:56;1.70;99.90
9971;DHT22;5026;51.494;11.974;2023-01-23T08:46:26;1.70;99.90
9971;DHT22;5026;51.494;11.974;2023-01-23T08:48:54;1.70;99.90
9971;DHT22;5026;51.494;11.974;2023-01-23T08:51:21;1.70;99.90
9971;DHT22;5026;51.494;11.974;2023-01-23T08:53:50;1.70;99.90
9971;DHT22;5026;51.494;11.974;2023-01-23T08:56:21;1.80;99.90
9971;DHT22;5026;51.494;11.974;2023-01-23T08:58:49;1.80;99.90
9971;DHT22;5026;51.494;11.974;2023-01-23T09:01:20;1.70;99.90
9971;DHT22;5026;51.494;11.974;2023-01-23T09:03:47;1.80;99.90
9971;DHT22;5026;51.494;11.974;2023-01-23T09:06:16;1.90;99.90
9971;DHT22;5026;51.494;11.974;2023-01-23T09:08:43;1.90;99.90
9971;DHT22;5026;51.494;11.974;2023-01-23T09:11:12;1.80;99.90
9971;DHT22;5026;51.494;11.974;2023-01-23T09:13:40;1.80;99.90
9971;DHT22;5026;51.494;11.974;2023-01-23T09:16:08;1.90;99.90
9971;DHT22;5026;51.494;11.974;2023-01-23T09:18:35;1.90;99.90
9971;DHT22;5026;51.494;11.974;2023-01-23T09:21:05;1.90;99.90
9971;DHT22;5026;51.494;11.974;2023-01-23T09:23:33;1.90;99.90
9971;DHT22;5026;51.494;11.974;2023-01-23T09:26:04;1.90;99.90
9971;DHT22;5026;51.494;11.974;2023-01-23T09:28:31;1.90;99.90
9971;DHT22;5026;51.494;11.974;2023-01-23T09:31:03;1.80;99.90
9971;DHT22;5026;51.494;11.974;2023-01-23T09:33:32;1.80;99.90
9971;DHT22;5026;51.494;11.974;2023-01-23T09:35:59;1.80;99.90
9971;DHT22;5026;51.494;11.974;2023-01-23T09:38:26;1.80;99.90
9971;DHT22;5026;51.494;11.974;2023-01-23T09:40:54;2.70;99.90
9971;DHT22;5026;51.494;11.974;2023-01-23T09:43:24;1.80;99.90
9971;DHT22;5026;51.494;11.974;2023-01-23T09:46:00;1.90;99.90
9971;DHT22;5026;51.494;11.974;2023-01-23T09:48:36;1.90;99.90
9971;DHT22;5026;51.494;11.974;2023-01-23T09:51:11;1.80;99.90
9971;DHT22;5026;51.494;11.974;2023-01-23T09:53:40;1.90;99.90
9971;DHT22;5026;51.494;11.974;2023-01-23T09:56:17;1.90;99.90
9971;DHT22;5026;51.494;11.974;2023-01-23T09:58:57;1.90;99.90
9971;DHT22;5026;51.494;11.974;2023-01-23T10:01:26;1.90;99.90
9971;DHT22;5026;51.494;11.974;2023-01-23T10:03:56;1.90;99.90
9971;DHT22;5026;51.494;11.974;2023-01-23T10:06:25;1.90;99.90
9971;DHT22;5026;51.494;11.974;2023-01-23T10:09:15;1.90;99.90
9971;DHT22;5026;51.494;11.974;2023-01-23T10:11:55;1.90;99.90
9971;DHT22;5026;51.494;11.974;2023-01-23T10:14:45;1.90;99.90
9971;DHT22;5026;51.494;11.974;2023-01-23T10:17:23;1.90;99.90
9971;DHT22;5026;51.494;11.974;2023-01-23T10:20:18;2.00;99.90
9971;DHT22;5026;51.494;11.974;2023-01-23T10:22:53;2.00;99.90
9971;DHT22;5026;51.494;11.974;2023-01-23T10:25:25;3.70;99.90
9971;DHT22;5026;51.494;11.974;2023-01-23T10:27:57;2.00;99.90
9971;DHT22;5026;51.494;11.974;2023-01-23T10:30:28;1.90;99.90
9971;DHT22;5026;51.494;11.974;2023-01-23T10:33:00;1.90;99.90
9971;DHT22;5026;51.494;11.974;2023-01-23T10:35:35;2.00;99.90
9971;DHT22;5026;51.494;11.974;2023-01-23T10:38:09;2.10;99.90
9971;DHT22;5026;51.494;11.974;2023-01-23T10:40:37;2.10;99.90
9971;DHT22;5026;51.494;11.974;2023-01-23T10:43:21;2.40;99.90
9971;DHT22;5026;51.494;11.974;2023-01-23T10:45:49;2.30;99.90
9971;DHT22;5026;51.494;11.974;2023-01-23T10:48:45;2.30;99.90
9971;DHT22;5026;51.494;11.974;2023-01-23T10:51:29;2.90;99.90
9971;DHT22;5026;51.494;11.974;2023-01-23T10:54:12;3.70;99.90
9971;DHT22;5026;51.494;11.974;2023-01-23T10:56:46;2.40;99.90
9971;DHT22;5026;51.494;11.974;2023-01-23T10:59:20;2.30;99.90
9971;DHT22;5026;51.494;11.974;2023-01-23T11:01:57;2.10;99.90
9971;DHT22;5026;51.494;11.974;2023-01-23T11:04:26;2.20;99.90
9971;DHT22;5026;51.494;11.974;2023-01-23T11:07:04;2.20;99.90
9971;DHT22;5026;51.494;11.974;2023-01-23T11:09:32;2.30;99.90
9971;DHT22;5026;51.494;11.974;2023-01-23T11:12:01;2.50;99.90
9971;DHT22;5026;51.494;11.974;2023-01-23T11:14:28;2.30;99.90
9971;DHT22;5026;51.494;11.974;2023-01-23T11:17:00;2.40;99.90
9971;DHT22;5026;51.494;11.974;2023-01-23T11:19:30;2.40;99.90
9971;DHT22;5026;51.494;11.974;2023-01-23T11:21:58;2.40;99.90
9971;DHT22;5026;51.494;11.974;2023-01-23T11:24:37;2.20;99.90
9971;DHT22;5026;51.494;11.974;2023-01-23T11:27:14;2.20;99.90
9971;DHT22;5026;51.494;11.974;2023-01-23T11:29:54;2.40;99.90
9971;DHT22;5026;51.494;11.974;2023-01-23T11:32:24;2.50;99.90
9971;DHT22;5026;51.494;11.974;2023-01-23T11:34:59;2.50;99.90
9971;DHT22;5026;51.494;11.974;2023-01-23T11:37:33;2.50;99.90
9971;DHT22;5026;51.494;11.974;2023-01-23T11:40:10;2.40;99.90
9971;DHT22;5026;51.494;11.974;2023-01-23T11:42:39;2.40;99.90
9971;DHT22;5026;51.494;11.974;2023-01-23T11:45:12;2.50;99.90
9971;DHT22;5026;51.494;11.974;2023-01-23T11:47:53;2.50;99.90
9971;DHT22;5026;51.494;11.974;2023-01-23T11:50:36;2.50;99.90
9971;DHT22;5026;51.494;11.974;2023-01-23T11:53:19;2.40;99.90
9971;DHT22;5026;51.494;11.974;2023-01-23T11:56:15;2.40;99.90
9971;DHT22;5026;51.494;11.974;2023-01-23T11:59:04;2.40;99.90
9971;DHT22;5026;51.494;11.974;2023-01-23T12:01:40;2.40;99.90
9971;DHT22;5026;51.494;11.974;2023-01-23T12:04:38;2.40;99.90
9971;DHT22;5026;51.494;11.974;2023-01-23T12:07:16;2.40;99.90
9971;DHT22;5026;51.494;11.974;2023-01-23T12:10:00;2.50;99.90
9971;DHT22;5026;51.494;11.974;2023-01-23T12:12:50;2.50;99.90
9971;DHT22;5026;51.494;11.974;2023-01-23T12:15:29;2.60;99.90
9971;DHT22;5026;51.494;11.974;2023-01-23T12:18:02;2.50;99.90
9971;DHT22;5026;51.494;11.974;2023-01-23T12:20:37;2.70;99.90
9971;DHT22;5026;51.494;11.974;2023-01-23T12:23:26;2.60;99.90
9971;DHT22;5026;51.494;11.974;2023-01-23T12:26:03;2.60;99.90
9971;DHT22;5026;51.494;11.974;2023-01-23T12:28:59;1.60;99.90
9971;DHT22;5026;51.494;11.974;2023-01-23T12:31:42;2.60;99.90
9971;DHT22;5026;51.494;11.974;2023-01-23T12:34:28;2.70;99.90
9971;DHT22;5026;51.494;11.974;2023-01-23T12:37:15;2.70;99.90
9971;DHT22;5026;51.494;11.974;2023-01-23T12:39:58;2.80;99.90
9971;DHT22;5026;51.494;11.974;2023-01-23T12:42:30;2.80;99.90
9971;DHT22;5026;51.494;11.974;2023-01-23T12:47:40;2.60;99.90
9971;DHT22;5026;51.494;11.974;2023-01-23T12:50:15;2.50;99.90
9971;DHT22;5026;51.494;11.974;2023-01-23T12:52:49;2.70;99.90
9971;DHT22;5026;51.494;11.974;2023-01-23T12:55:19;2.60;99.90
9971;DHT22;5026;51.494;11.974;2023-01-23T12:57:47;2.60;99.90
9971;DHT22;5026;51.494;11.974;2023-01-23T13:00:28;2.60;99.90
9971;DHT22;5026;51.494;11.974;2023-01-23T13:03:13;2.40;99.90
9971;DHT22;5026;51.494;11.974;2023-01-23T13:05:50;2.40;99.90
9971;DHT22;5026;51.494;11.974;2023-01-23T13:08:23;2.40;99.90
9971;DHT22;5026;51.494;11.974;2023-01-23T13:11:01;2.50;99.90
9971;DHT22;5026;51.494;11.974;2023-01-23T13:13:46;2.40;99.90
9971;DHT22;5026;51.494;11.974;2023-01-23T13:16:15;2.40;99.90
9971;DHT22;5026;51.494;11.974;2023-01-23T13:18:53;2.40;99.90
9971;DHT22;5026;51.494;11.974;2023-01-23T13:21:38;2.40;99.90
9971;DHT22;5026;51.494;11.974;2023-01-23T13:24:35;2.40;99.90
9971;DHT22;5026;51.494;11.974;2023-01-23T13:27:38;2.70;99.90
9971;DHT22;5026;51.494;11.974;2023-01-23T13:30:36;2.40;99.90
9971;DHT22;5026;51.494;11.974;2023-01-23T13:33:48;2.40;99.90
9971;DHT22;5026;51.494;11.974;2023-01-23T13:36:33;2.50;99.90
9971;DHT22;5026;51.494;11.974;2023-01-23T13:39:26;2.40;99.90
9971;DHT22;5026;51.494;11.974;2023-01-23T13:45:23;2.60;99.90
9971;DHT22;5026;51.494;11.974;2023-01-23T13:51:25;2.50;99.90
9971;DHT22;5026;51.494;11.974;2023-01-23T13:53:53;2.40;99.90
9971;DHT22;5026;51.494;11.974;2023-01-23T13:56:39;2.50;99.90
9971;DHT22;5026;51.494;11.974;2023-01-23T13:59:16;2.60;99.90
9971;DHT22;5026;51.494;11.974;2023-01-23T14:01:51;2.50;99.90
9971;DHT22;5026;51.494;11.974;2023-01-23T14:04:40;2.40;99.90
9971;DHT22;5026;51.494;11.974;2023-01-23T14:07:28;2.40;99.90
9971;DHT22;5026;51.494;11.974;2023-01-23T14:10:19;2.50;99.90
9971;DHT22;5026;51.494;11.974;2023-01-23T14:12:47;2.50;99.90
9971;DHT22;5026;51.494;11.974;2023-01-23T14:15:22;2.60;99.90
9971;DHT22;5026;51.494;11.974;2023-01-23T14:18:15;2.50;99.90
9971;DHT22;5026;51.494;11.974;2023-01-23T14:20:44;2.70;99.90
9971;DHT22;5026;51.494;11.974;2023-01-23T14:23:33;2.70;99.90
9971;DHT22;5026;51.494;11.974;2023-01-23T14:26:01;2.70;99.90
9971;DHT22;5026;51.494;11.974;2023-01-23T14:28:29;2.70;99.90
9971;DHT22;5026;51.494;11.974;2023-01-23T14:30:58;2.70;99.90
9971;DHT22;5026;51.494;11.974;2023-01-23T14:33:26;3.60;99.90
9971;DHT22;5026;51.494;11.974;2023-01-23T14:35:54;3.40;99.90
9971;DHT22;5026;51.494;11.974;2023-01-23T14:38:28;2.60;99.90
9971;DHT22;5026;51.494;11.974;2023-01-23T14:41:01;2.50;99.90
9971;DHT22;5026;51.494;11.974;2023-01-23T14:43:30;2.50;99.90
9971;DHT22;5026;51.494;11.974;2023-01-23T14:46:01;2.60;99.90
9971;DHT22;5026;51.494;11.974;2023-01-23T14:48:33;2.50;99.90
9971;DHT22;5026;51.494;11.974;2023-01-23T14:51:03;2.50;99.90
9971;DHT22;5026;51.494;11.974;2023-01-23T14:53:30;2.50;99.90
9971;DHT22;5026;51.494;11.974;2023-01-23T14:55:59;2.50;99.90
9971;DHT22;5026;51.494;11.974;2023-01-23T14:58:27;2.50;99.90
9971;DHT22;5026;51.494;11.974;2023-01-23T15:00:54;2.60;99.90
9971;DHT22;5026;51.494;11.974;2023-01-23T15:06:09;2.50;99.90
9971;DHT22;5026;51.494;11.974;2023-01-23T15:08:37;2.50;99.90
9971;DHT22;5026;51.494;11.974;2023-01-23T15:11:06;2.50;99.90
9971;DHT22;5026;51.494;11.974;2023-01-23T15:13:41;2.60;99.90
9971;DHT22;5026;51.494;11.974;2023-01-23T15:16:13;2.50;99.90
9971;DHT22;5026;51.494;11.974;2023-01-23T15:18:53;2.50;99.90
9971;DHT22;5026;51.494;11.974;2023-01-23T15:21:27;3.60;99.90
9971;DHT22;5026;51.494;11.974;2023-01-23T15:24:15;2.50;99.90
9971;DHT22;5026;51.494;11.974;2023-01-23T15:26:55;2.50;99.90
9971;DHT22;5026;51.494;11.974;2023-01-23T15:29:23;2.50;99.90
9971;DHT22;5026;51.494;11.974;2023-01-23T15:31:51;2.50;99.90
9971;DHT22;5026;51.494;11.974;2023-01-23T15:34:24;2.50;99.90
9971;DHT22;5026;51.494;11.974;2023-01-23T15:36:57;2.40;99.90
9971;DHT22;5026;51.494;11.974;2023-01-23T15:39:27;2.40;99.90
9971;DHT22;5026;51.494;11.974;2023-01-23T15:41:57;2.30;99.90
9971;DHT22;5026;51.494;11.974;2023-01-23T15:44:27;2.40;99.90
9971;DHT22;5026;51.494;11.974;2023-01-23T15:46:54;2.40;99.90
9971;DHT22;5026;51.494;11.974;2023-01-23T15:49:21;2.30;99.90
9971;DHT22;5026;51.494;11.974;2023-01-23T15:51:48;2.40;99.90
9971;DHT22;5026;51.494;11.974;2023-01-23T15:54:21;2.90;99.90
9971;DHT22;5026;51.494;11.974;2023-01-23T15:56:50;2.40;99.90
9971;DHT22;5026;51.494;11.974;2023-01-23T15:59:18;2.30;99.90
9971;DHT22;5026;51.494;11.974;2023-01-23T16:01:46;2.30;99.90
9971;DHT22;5026;51.494;11.974;2023-01-23T16:04:13;2.30;99.90
9971;DHT22;5026;51.494;11.974;2023-01-23T16:06:43;2.30;99.90
9971;DHT22;5026;51.494;11.974;2023-01-23T16:09:20;2.30;99.90
9971;DHT22;5026;51.494;11.974;2023-01-23T16:11:49;2.30;99.90
9971;DHT22;5026;51.494;11.974;2023-01-23T16:14:18;2.20;99.90
9971;DHT22;5026;51.494;11.974;2023-01-23T16:16:45;2.30;99.90
9971;DHT22;5026;51.494;11.974;2023-01-23T16:19:12;2.30;99.90
9971;DHT22;5026;51.494;11.974;2023-01-23T16:21:40;2.30;99.90
9971;DHT22;5026;51.494;11.974;2023-01-23T16:24:15;2.30;99.90
9971;DHT22;5026;51.494;11.974;2023-01-23T16:26:43;2.40;99.90
9971;DHT22;5026;51.494;11.974;2023-01-23T16:29:28;2.40;99.90
9971;DHT22;5026;51.494;11.974;2023-01-23T16:31:56;2.40;99.90
9971;DHT22;5026;51.494;11.974;2023-01-23T16:34:24;2.40;99.90
9971;DHT22;5026;51.494;11.974;2023-01-23T16:36:52;2.40;99.90
9971;DHT22;5026;51.494;11.974;2023-01-23T16:39:22;2.40;99.90
9971;DHT22;5026;51.494;11.974;2023-01-23T16:41:49;2.40;99.90
9971;DHT22;5026;51.494;11.974;2023-01-23T16:44:19;2.30;99.90